createdAt,value
2023-02-03T00:00:17.849Z,44.80
2023-02-03T00:01:17.818Z,44.72
2023-02-03T00:02:17.845Z,44.69
2023-02-03T00:03:17.843Z,44.78
2023-02-03T00:04:17.769Z,44.71
2023-02-03T00:05:17.731Z,44.72
2023-02-03T00:06:17.708Z,44.69
2023-02-03T00:07:17.703Z,44.65
2023-02-03T00:08:17.656Z,44.67
2023-02-03T00:30:17.080Z,44.47
2023-02-03T00:31:17.188Z,44.47
2023-02-03T00:32:17.173Z,44.47
2023-02-03T00:33:17.016Z,44.47
2023-02-03T00:34:16.997Z,44.39
2023-02-03T00:35:16.979Z,44.41
2023-02-03T00:36:16.954Z,44.41
2023-02-03T00:37:16.939Z,44.42
2023-02-03T00:38:16.917Z,44.35
2023-02-03T00:39:16.895Z,44.39
2023-02-03T00:40:16.876Z,44.34
2023-02-03T00:41:16.863Z,44.33
2023-02-03T00:42:16.920Z,44.37
2023-02-03T00:43:16.816Z,44.36
2023-02-03T00:44:16.806Z,44.28
2023-02-03T00:45:16.783Z,44.28
2023-02-03T00:46:16.875Z,44.27
2023-02-03T00:47:16.744Z,44.29
2023-02-03T00:48:16.725Z,44.25
2023-02-03T00:49:16.741Z,44.28
2023-02-03T00:50:17.105Z,44.23
2023-02-03T00:51:17.590Z,44.20
2023-02-03T00:52:16.666Z,44.20
2023-02-03T00:53:16.632Z,44.22
2023-02-03T00:54:16.628Z,44.15
2023-02-03T00:55:16.631Z,44.18
2023-02-03T00:56:16.600Z,44.10
2023-02-03T00:57:16.587Z,44.14
2023-02-03T00:58:16.625Z,44.13
2023-02-03T00:59:16.540Z,44.10
2023-02-03T01:00:16.545Z,44.10
2023-02-03T01:01:16.569Z,44.11
2023-02-03T01:02:16.528Z,44.11
2023-02-03T01:03:16.580Z,44.07
2023-02-03T01:04:16.478Z,44.13
2023-02-03T01:05:16.484Z,44.07
2023-02-03T01:06:16.453Z,44.08
2023-02-03T01:07:16.434Z,44.09
2023-02-03T01:08:16.451Z,44.04
2023-02-03T01:09:16.396Z,44.05
2023-02-03T01:10:16.394Z,43.99
2023-02-03T01:11:16.374Z,43.98
2023-02-03T01:12:16.344Z,43.99
2023-02-03T01:13:16.329Z,43.93
2023-02-03T01:14:16.310Z,43.99
2023-02-03T01:15:16.365Z,43.93
2023-02-03T01:16:16.358Z,43.93
2023-02-03T01:17:16.243Z,43.95
2023-02-03T01:18:16.233Z,43.90
2023-02-03T01:19:16.205Z,43.90
2023-02-03T01:20:16.184Z,43.91
2023-02-03T01:21:16.161Z,43.89
2023-02-03T01:22:16.149Z,43.88
2023-02-03T01:23:16.135Z,43.88
2023-02-03T01:24:16.112Z,43.87
2023-02-03T01:25:16.086Z,43.83
2023-02-03T01:26:16.061Z,43.82
2023-02-03T01:27:16.051Z,43.81
2023-02-03T01:28:16.173Z,43.78
2023-02-03T01:29:16.021Z,43.78
2023-02-03T01:30:15.995Z,43.80
2023-02-03T01:31:16.175Z,43.71
2023-02-03T01:32:16.677Z,43.70
2023-02-03T01:33:15.950Z,43.67
2023-02-03T01:34:15.933Z,43.67
2023-02-03T01:35:15.936Z,43.64
2023-02-03T01:36:15.901Z,43.56
2023-02-03T01:37:15.901Z,43.52
2023-02-03T01:38:15.887Z,43.49
2023-02-03T01:39:15.875Z,43.45
2023-02-03T01:40:15.852Z,43.45
2023-02-03T01:41:15.850Z,43.41
2023-02-03T01:42:15.844Z,43.35
2023-02-03T01:55:15.704Z,43.24
2023-02-03T01:57:15.649Z,43.17
2023-02-03T01:58:15.717Z,43.18
2023-02-03T01:59:15.673Z,43.14
2023-02-03T02:00:15.634Z,43.15
2023-02-03T02:01:17.505Z,43.17
2023-02-03T02:02:15.638Z,43.11
2023-02-03T02:03:15.491Z,43.14
2023-02-03T02:04:15.426Z,43.13
2023-02-03T02:05:15.396Z,43.11
2023-02-03T02:06:15.295Z,43.11
2023-02-03T02:07:16.127Z,43.06
2023-02-03T02:08:15.192Z,43.03
2023-02-03T02:09:15.113Z,43.03
2023-02-03T02:10:15.029Z,43.05
2023-02-03T02:11:14.977Z,43.04
2023-02-03T02:12:14.911Z,43.00
2023-02-03T02:13:14.864Z,43.00
2023-02-03T02:14:14.798Z,43.02
2023-02-03T02:15:14.739Z,43.00
2023-02-03T02:16:14.687Z,42.93
2023-02-03T02:17:14.594Z,42.90
2023-02-03T02:18:14.527Z,42.88
2023-02-03T02:19:14.477Z,42.86
2023-02-03T02:20:14.392Z,42.86
2023-02-03T02:21:14.398Z,42.92
2023-02-03T02:22:14.277Z,42.86
2023-02-03T02:23:14.220Z,42.90
2023-02-03T02:24:14.628Z,42.92
2023-02-03T02:25:14.086Z,42.89
2023-02-03T02:26:14.030Z,42.88
2023-02-03T02:27:14.008Z,42.86
2023-02-03T02:28:13.927Z,42.86
2023-02-03T02:29:13.826Z,42.78
2023-02-03T02:30:13.771Z,42.79
2023-02-03T02:31:13.768Z,42.78
2023-02-03T02:32:13.631Z,42.73
2023-02-03T02:33:14.123Z,42.74
2023-02-03T02:34:13.631Z,42.70
2023-02-03T02:35:13.428Z,42.69
2023-02-03T02:36:13.413Z,42.68
2023-02-03T04:40:06.816Z,41.35
2023-02-03T04:41:06.743Z,41.31
2023-02-03T04:42:06.689Z,41.32
2023-02-03T04:43:06.629Z,41.26
2023-02-03T04:44:06.552Z,41.31
2023-02-03T04:45:06.587Z,41.32
2023-02-03T04:46:06.493Z,41.27
2023-02-03T04:47:06.356Z,41.26
2023-02-03T04:48:06.319Z,41.26
2023-02-03T04:49:06.221Z,41.28
2023-02-03T04:50:06.160Z,41.27
2023-02-03T04:51:06.118Z,41.23
2023-02-03T04:52:06.036Z,41.21
2023-02-03T04:53:05.975Z,41.19
2023-02-03T04:54:05.902Z,41.15
2023-02-03T04:55:05.846Z,41.22
2023-02-03T04:56:05.780Z,41.17
2023-02-03T04:57:05.716Z,41.23
2023-02-03T04:58:05.666Z,41.21
2023-02-03T04:59:05.598Z,41.18
2023-02-03T05:00:05.513Z,41.18
2023-02-03T05:01:05.529Z,41.12
2023-02-03T05:02:05.405Z,41.15
2023-02-03T05:03:05.340Z,41.18
2023-02-03T05:04:05.347Z,41.09
2023-02-03T05:05:05.220Z,41.18
2023-02-03T05:06:05.150Z,41.14
2023-02-03T05:07:05.090Z,41.10
2023-02-03T05:08:05.022Z,41.09
2023-02-03T05:09:04.944Z,41.09
2023-02-03T05:10:04.882Z,41.01
2023-02-03T05:11:06.597Z,41.01
2023-02-03T05:12:04.810Z,40.99
2023-02-03T05:13:04.689Z,41.04
2023-02-03T05:14:04.637Z,41.00
2023-02-03T05:15:04.565Z,40.97
2023-02-03T05:16:04.584Z,40.95
2023-02-03T05:17:04.439Z,40.94
2023-02-03T05:18:04.359Z,40.91
2023-02-03T05:19:04.290Z,40.89
2023-02-03T05:20:04.694Z,40.91
2023-02-03T05:21:04.168Z,40.86
2023-02-03T05:22:04.161Z,40.85
2023-02-03T05:23:04.036Z,40.82
2023-02-03T05:24:03.973Z,40.82
2023-02-03T05:25:03.904Z,40.84
2023-02-03T05:26:03.835Z,40.83
2023-02-03T05:27:03.788Z,40.81
2023-02-03T05:28:03.899Z,40.77
2023-02-03T05:29:03.644Z,40.79
2023-02-03T05:30:03.578Z,40.78
2023-02-03T05:31:03.593Z,40.74
2023-02-03T05:32:03.535Z,40.77
2023-02-03T05:33:03.389Z,40.78
2023-02-03T07:38:56.152Z,49.79
2023-02-03T07:40:55.981Z,49.84
2023-02-03T07:41:55.910Z,50.11
2023-02-03T07:42:56.657Z,50.15
2023-02-03T07:43:55.768Z,50.27
2023-02-03T07:44:55.685Z,50.41
2023-02-03T07:45:55.594Z,50.56
2023-02-03T07:46:55.554Z,50.44
2023-02-03T07:47:55.464Z,50.65
2023-02-03T07:48:56.234Z,50.92
2023-02-03T07:49:55.263Z,50.60
2023-02-03T07:50:55.194Z,50.71
2023-02-03T07:51:55.654Z,50.72
2023-02-03T07:52:55.048Z,51.02
2023-02-03T07:53:54.981Z,50.91
2023-02-03T07:54:54.891Z,50.94
2023-02-03T07:55:54.835Z,51.11
2023-02-03T07:56:54.763Z,51.41
2023-02-03T07:57:54.713Z,51.31
2023-02-03T07:58:54.639Z,51.69
2023-02-03T07:59:55.242Z,51.82
2023-02-03T08:00:54.543Z,52.03
2023-02-03T08:01:54.487Z,52.04
2023-02-03T08:02:54.399Z,52.34
2023-02-03T08:03:55.332Z,52.30
2023-02-03T08:04:54.298Z,52.38
2023-02-03T08:05:54.209Z,52.53
2023-02-03T08:06:54.132Z,52.69
2023-02-03T08:07:54.051Z,52.60
2023-02-03T08:08:53.995Z,52.53
2023-02-03T08:09:53.911Z,52.66
2023-02-03T08:10:54.744Z,52.50
2023-02-03T08:11:53.767Z,52.77
2023-02-03T08:12:53.685Z,53.08
2023-02-03T08:13:53.614Z,52.91
2023-02-03T08:14:53.549Z,52.72
2023-02-03T08:15:53.512Z,52.80
2023-02-03T08:16:53.391Z,53.04
2023-02-03T09:40:48.686Z,43.53
2023-02-03T09:41:48.636Z,43.53
2023-02-03T09:42:48.597Z,43.41
2023-02-03T09:43:48.563Z,43.51
2023-02-03T09:44:49.194Z,43.36
2023-02-03T09:45:48.629Z,43.35
2023-02-03T09:46:48.467Z,43.25
2023-02-03T09:47:48.446Z,43.21
2023-02-03T09:48:49.702Z,43.12
2023-02-03T09:49:48.342Z,43.17
2023-02-03T09:50:48.393Z,43.12
2023-02-03T09:51:48.280Z,43.12
2023-02-03T09:52:48.323Z,43.10
2023-02-03T09:53:48.716Z,43.16
2023-02-03T09:54:48.137Z,42.94
2023-02-03T09:55:48.097Z,42.98
2023-02-03T09:56:48.070Z,42.94
2023-02-03T09:57:48.013Z,42.95
2023-02-03T09:58:47.950Z,42.86
2023-02-03T09:59:47.899Z,42.80
2023-02-03T10:00:47.876Z,42.76
2023-02-03T10:01:47.808Z,42.79
2023-02-03T10:02:47.855Z,42.81
2023-02-03T10:03:47.741Z,42.82
2023-02-03T10:04:47.666Z,42.67
2023-02-03T10:05:47.646Z,42.67
2023-02-03T10:06:47.579Z,42.72
2023-02-03T10:07:49.224Z,42.60
2023-02-03T10:08:48.285Z,42.66
2023-02-03T10:09:47.340Z,42.74
2023-02-03T10:10:47.781Z,42.64
2023-02-03T10:11:48.257Z,42.58
2023-02-03T10:12:47.826Z,42.67
2023-02-03T10:13:47.041Z,42.57
2023-02-03T10:14:46.953Z,42.61
2023-02-03T10:15:46.895Z,42.65
2023-02-03T10:16:46.923Z,42.65
2023-02-03T10:17:46.783Z,42.66
2023-02-03T10:18:46.726Z,42.63
2023-02-03T10:19:46.734Z,42.50
2023-02-03T10:20:46.632Z,42.47
2023-02-03T10:21:46.608Z,42.94
2023-02-03T10:22:46.576Z,42.89
2023-02-03T10:23:46.534Z,43.12
2023-02-03T10:24:46.493Z,43.04
2023-02-03T10:25:47.292Z,43.25
2023-02-03T10:26:46.378Z,43.27
2023-02-03T10:27:46.350Z,43.41
2023-02-03T10:28:46.231Z,43.58
2023-02-03T10:29:46.161Z,43.69
2023-02-03T10:30:46.240Z,43.76
2023-02-03T10:31:46.129Z,43.75
2023-02-03T10:32:45.922Z,44.03
2023-02-03T10:33:45.906Z,44.20
2023-02-03T10:34:46.303Z,44.04
2023-02-03T10:35:45.697Z,44.45
2023-02-03T10:36:45.614Z,44.26
2023-02-03T10:37:45.536Z,44.47
2023-02-03T10:38:45.450Z,44.49
2023-02-03T10:39:45.339Z,44.47
2023-02-03T10:40:45.286Z,44.45
2023-02-03T10:41:45.149Z,44.48
2023-02-03T10:42:45.727Z,44.69
2023-02-03T10:43:44.981Z,44.71
2023-02-03T10:44:44.892Z,44.94
2023-02-03T10:45:44.800Z,44.88
2023-02-03T10:46:44.728Z,45.12
2023-02-03T10:47:44.641Z,45.27
2023-02-03T10:48:44.534Z,45.32
2023-02-03T10:49:44.923Z,45.55
2023-02-03T10:50:44.395Z,45.34
2023-02-03T10:51:44.255Z,45.44
2023-02-03T10:52:44.165Z,45.57
2023-02-03T10:53:44.056Z,45.65
2023-02-03T10:54:44.807Z,45.76
2023-02-03T10:55:43.899Z,45.77
2023-02-03T10:56:43.769Z,45.86
2023-02-03T10:57:45.261Z,46.04
2023-02-03T10:58:43.585Z,46.18
2023-02-03T10:59:43.478Z,45.99
2023-02-03T11:00:43.434Z,46.13
2023-02-03T11:26:41.731Z,48.85
2023-02-03T11:38:40.671Z,51.30
2023-02-03T11:39:40.549Z,51.43
2023-02-03T11:40:40.496Z,51.77
2023-02-03T11:41:40.429Z,51.67
2023-02-03T11:42:40.407Z,51.87
2023-02-03T11:43:40.306Z,52.02
2023-02-03T11:44:40.821Z,52.08
2023-02-03T11:45:40.147Z,52.22
2023-02-03T11:46:40.159Z,52.30
2023-02-03T11:47:40.029Z,52.36
2023-02-03T11:48:39.968Z,52.48
2023-02-03T11:49:39.853Z,52.50
2023-02-03T11:50:39.791Z,52.49
2023-02-03T11:51:39.713Z,52.64
2023-02-03T11:52:39.636Z,52.73
2023-02-03T11:53:51.261Z,52.86
2023-02-03T11:54:40.440Z,52.96
2023-02-03T11:55:39.360Z,52.96
2023-02-03T11:56:39.215Z,53.07
2023-02-03T11:57:39.104Z,53.22
2023-02-03T11:58:39.021Z,53.32
2023-02-03T11:59:38.878Z,53.41
2023-02-03T12:00:38.756Z,53.30
2023-02-03T12:01:38.637Z,53.31
2023-02-03T12:02:38.695Z,53.35
2023-02-03T12:03:38.431Z,53.39
2023-02-03T12:04:38.476Z,53.28
2023-02-03T12:05:38.274Z,53.09
2023-02-03T12:06:38.826Z,52.93
2023-02-03T12:07:38.185Z,52.82
2023-02-03T12:08:38.116Z,52.61
2023-02-03T12:09:38.194Z,52.50
2023-02-03T12:10:38.036Z,52.42
2023-02-03T12:11:37.960Z,52.24
2023-02-03T12:12:37.907Z,52.28
2023-02-03T12:13:37.847Z,52.34
2023-02-03T12:14:37.769Z,52.36
2023-02-03T12:15:37.708Z,52.35
2023-02-03T12:16:37.741Z,52.40
2023-02-03T12:17:37.551Z,52.50
2023-02-03T12:18:37.478Z,52.53
2023-02-03T12:19:37.371Z,52.41
2023-02-03T12:20:37.279Z,52.47
2023-02-03T12:21:37.159Z,52.53
2023-02-03T12:22:37.031Z,52.48
2023-02-03T12:23:36.937Z,52.52
2023-02-03T12:24:36.849Z,52.55
2023-02-03T12:25:36.729Z,52.52
2023-02-03T12:26:37.327Z,52.55
2023-02-03T12:27:36.714Z,52.54
2023-02-03T12:28:36.476Z,52.63
2023-02-03T12:29:36.355Z,52.70
2023-02-03T12:30:36.328Z,52.59
2023-02-03T12:31:36.205Z,52.53
2023-02-03T12:32:36.087Z,52.52
2023-02-03T12:33:36.002Z,52.57
2023-02-03T12:34:35.999Z,52.48
2023-02-03T12:35:35.844Z,52.52
2023-02-03T12:36:35.736Z,52.57
2023-02-03T12:37:35.642Z,52.57
2023-02-03T12:38:35.555Z,52.51
2023-02-03T12:39:35.493Z,52.47
2023-02-03T12:40:35.409Z,52.47
2023-02-03T12:41:35.333Z,52.50
2023-02-03T12:42:35.270Z,52.54
2023-02-03T12:43:35.183Z,52.51
2023-02-03T12:44:35.837Z,52.51
2023-02-03T12:45:35.095Z,52.52
2023-02-03T12:46:34.973Z,52.48
2023-02-03T12:47:34.905Z,52.50
2023-02-03T12:48:34.853Z,52.51
2023-02-03T12:49:34.792Z,52.54
2023-02-03T12:50:34.720Z,52.52
2023-02-03T12:51:34.665Z,52.50
2023-02-03T12:52:34.605Z,52.45
2023-02-03T12:53:34.545Z,52.45
2023-02-03T12:54:34.490Z,52.45
2023-02-03T12:55:34.439Z,52.45
2023-02-03T12:56:34.454Z,52.44
2023-02-03T12:57:34.328Z,52.45
2023-02-03T12:58:34.814Z,52.41
2023-02-03T12:59:34.237Z,52.35
2023-02-03T13:00:34.864Z,52.36
2023-02-03T13:01:34.137Z,52.36
2023-02-03T13:02:34.140Z,52.34
2023-02-03T13:03:34.152Z,52.28
2023-02-03T13:04:34.008Z,52.28
2023-02-03T13:05:34.029Z,52.29
2023-02-03T13:06:33.932Z,52.22
2023-02-03T13:07:33.935Z,52.29
2023-02-03T13:08:33.851Z,52.23
2023-02-03T13:09:33.828Z,52.21
2023-02-03T13:10:33.847Z,52.18
2023-02-03T13:11:33.750Z,52.10
2023-02-03T13:12:33.716Z,52.08
2023-02-03T13:13:33.688Z,52.11
2023-02-03T13:14:33.642Z,52.11
2023-02-03T13:15:33.606Z,52.10
2023-02-03T13:16:34.420Z,52.05
2023-02-03T13:17:33.529Z,52.03
2023-02-03T13:18:33.502Z,52.01
2023-02-03T13:19:33.499Z,51.95
2023-02-03T13:20:33.454Z,51.95
2023-02-03T13:21:33.415Z,51.99
2023-02-03T13:22:33.392Z,52.00
2023-02-03T13:23:33.375Z,51.99
2023-02-03T16:27:23.954Z,48.22
2023-02-03T16:30:23.765Z,48.22
2023-02-03T16:31:23.762Z,48.19
2023-02-03T17:16:20.424Z,47.56
2023-02-03T17:24:19.810Z,47.45
2023-02-03T17:25:19.736Z,47.43
2023-02-03T17:26:19.701Z,47.44
2023-02-03T17:27:19.594Z,47.39
2023-02-03T17:28:19.566Z,47.41
2023-02-03T17:29:19.457Z,47.39
2023-02-03T17:30:19.371Z,47.39
2023-02-03T17:31:19.478Z,47.37
2023-02-03T17:32:19.351Z,47.31
2023-02-03T17:33:19.179Z,47.35
2023-02-03T17:34:19.119Z,47.29
2023-02-03T17:35:19.025Z,47.38
2023-02-03T17:36:19.017Z,47.34
2023-02-03T17:37:18.902Z,47.33
2023-02-03T17:38:18.830Z,47.28
2023-02-03T17:53:49.720Z,47.46
2023-02-03T17:54:49.721Z,47.39
2023-02-03T17:55:49.718Z,47.34
2023-02-03T17:56:49.710Z,47.33
2023-02-03T17:57:49.703Z,47.22
2023-02-03T17:58:49.704Z,47.21
2023-02-03T17:59:49.711Z,47.23
2023-02-03T18:00:49.813Z,47.22
2023-02-03T18:01:49.742Z,47.16
2023-02-03T18:02:49.729Z,47.16
2023-02-03T18:03:49.789Z,47.11
2023-02-03T18:04:49.708Z,47.13
2023-02-03T18:05:49.799Z,47.10
2023-02-03T18:06:49.718Z,47.07
2023-02-03T18:07:50.064Z,47.10
2023-02-03T18:08:50.178Z,47.06
2023-02-03T18:09:49.721Z,47.03
2023-02-03T18:10:49.724Z,47.02
2023-02-03T18:11:49.732Z,47.03
2023-02-03T18:12:49.718Z,46.97
2023-02-03T18:13:49.726Z,46.94
2023-02-03T18:14:49.723Z,46.96
2023-02-03T18:15:49.714Z,46.92
2023-02-03T18:16:49.753Z,46.94
2023-02-03T18:17:49.714Z,46.92
2023-02-03T18:18:49.714Z,46.93
2023-02-03T18:19:55.846Z,46.94
2023-02-03T18:20:50.700Z,46.89
2023-02-03T18:21:49.700Z,46.91
2023-02-03T18:22:49.713Z,46.94
2023-02-03T18:23:49.704Z,46.92
2023-02-03T18:24:49.704Z,46.90
2023-02-03T18:25:49.698Z,46.90
2023-02-03T18:26:49.701Z,46.87
2023-02-03T18:27:50.742Z,46.83
2023-02-03T18:28:49.681Z,46.87
2023-02-03T18:29:49.713Z,46.90
2023-02-03T18:30:49.810Z,46.91
2023-02-03T18:31:49.694Z,46.91
2023-02-03T18:32:49.688Z,46.91
2023-02-03T18:33:49.685Z,46.88
2023-02-03T18:34:49.712Z,46.84
2023-02-03T18:35:49.684Z,46.80
2023-02-03T18:36:49.822Z,46.84
2023-02-03T18:37:49.689Z,46.85
2023-02-03T18:38:49.722Z,46.86
2023-02-03T18:39:49.706Z,46.78
2023-02-03T18:40:49.717Z,46.82
2023-02-03T18:41:49.741Z,46.80
2023-02-03T18:42:49.786Z,46.78
2023-02-03T18:43:49.825Z,46.78
2023-02-03T18:44:49.863Z,46.81
2023-02-03T18:45:49.994Z,46.76
2023-02-03T18:46:49.956Z,46.73
2023-02-03T18:47:49.996Z,46.79
2023-02-03T18:48:50.032Z,46.78
2023-02-03T18:49:50.070Z,46.77
2023-02-03T18:50:50.126Z,46.73
2023-02-03T18:51:50.171Z,46.76
2023-02-03T18:52:50.195Z,46.69
2023-02-03T18:53:50.227Z,46.69
2023-02-03T18:54:50.283Z,46.69
2023-02-03T18:55:50.310Z,46.67
2023-02-03T18:56:50.361Z,46.69
2023-02-03T18:57:50.391Z,46.69
2023-02-03T18:58:50.498Z,46.64
2023-02-03T18:59:50.460Z,46.63
2023-02-03T19:00:50.901Z,46.62
2023-02-03T19:01:50.547Z,46.64
2023-02-03T19:02:50.663Z,46.62
2023-02-03T19:03:50.639Z,46.57
2023-02-03T19:04:50.648Z,46.57
2023-02-03T19:05:50.696Z,46.54
2023-02-03T19:06:50.735Z,46.49
2023-02-03T19:07:50.774Z,46.52
2023-02-03T19:08:50.814Z,46.53
2023-02-03T19:09:50.859Z,46.48
2023-02-03T19:10:50.989Z,46.49
2023-02-03T19:11:50.933Z,46.42
2023-02-03T19:12:50.990Z,46.46
2023-02-03T19:13:51.058Z,46.41
2023-02-03T19:14:51.058Z,46.41
2023-02-03T19:15:51.149Z,46.42
2023-02-03T19:16:51.159Z,46.40
2023-02-03T19:17:51.176Z,46.41
2023-02-03T19:18:51.214Z,46.42
2023-02-03T19:19:51.261Z,46.37
2023-02-03T19:20:51.313Z,46.41
2023-02-03T19:21:51.354Z,46.37
2023-02-03T19:22:51.429Z,46.34
2023-02-03T19:23:51.435Z,46.36
2023-02-03T19:24:52.404Z,46.36
2023-02-03T19:25:51.513Z,46.36
2023-02-03T19:26:51.561Z,46.40
2023-02-03T19:27:51.633Z,46.36
2023-02-03T19:28:51.644Z,46.41
2023-02-03T19:29:51.710Z,46.37
2023-02-03T19:30:57.473Z,46.39
2023-02-03T19:31:52.799Z,46.40
2023-02-03T19:32:51.763Z,46.36
2023-02-03T19:33:51.750Z,46.36
2023-02-03T19:34:51.765Z,46.39
2023-02-03T19:35:51.820Z,46.32
2023-02-03T19:36:52.399Z,46.30
2023-02-03T19:37:51.767Z,46.29
2023-02-03T19:38:51.763Z,46.30
2023-02-03T19:39:51.776Z,46.31
2023-02-03T19:40:51.802Z,46.28
2023-02-03T19:41:51.827Z,46.24
2023-02-03T19:42:51.855Z,46.27
2023-02-03T19:43:51.913Z,46.26
2023-02-03T19:44:51.936Z,46.24
2023-02-03T19:45:51.993Z,46.30
2023-02-03T19:46:52.039Z,46.27
2023-02-03T19:47:52.064Z,46.26
2023-02-03T19:48:52.169Z,46.29
2023-02-03T19:49:52.244Z,46.24
2023-02-03T19:50:52.205Z,46.24
2023-02-03T19:51:52.266Z,46.23
2023-02-03T19:52:52.364Z,46.23
2023-02-03T19:53:53.707Z,46.28
2023-02-03T19:54:52.482Z,46.20
2023-02-03T19:55:52.442Z,46.22
2023-02-03T19:56:52.549Z,46.19
2023-02-03T19:57:52.545Z,46.19
2023-02-03T19:58:52.602Z,46.15
2023-02-03T19:59:53.434Z,46.19
2023-02-03T20:00:52.690Z,46.16
2023-02-03T20:01:52.805Z,46.18
2023-02-03T20:02:52.787Z,46.14
2023-02-03T20:03:52.836Z,46.16
2023-02-03T20:04:52.953Z,46.12
2023-02-03T20:05:52.939Z,46.19
2023-02-03T20:06:52.956Z,46.12
2023-02-03T20:07:53.013Z,46.18
2023-02-03T20:08:53.065Z,46.15
2023-02-03T20:09:53.092Z,46.11
2023-02-03T20:10:53.185Z,46.11
2023-02-03T20:11:53.197Z,46.11
2023-02-03T20:12:53.249Z,46.10
2023-02-03T20:13:53.278Z,46.07
2023-02-03T20:14:53.336Z,46.04
2023-02-03T20:15:53.400Z,46.08
2023-02-03T20:16:53.440Z,45.99
2023-02-03T20:17:53.475Z,46.06
2023-02-03T20:18:53.609Z,45.98
2023-02-03T20:20:53.629Z,46.06
2023-02-03T20:21:53.680Z,45.98
2023-02-03T20:22:53.719Z,46.03
2023-02-03T20:23:53.769Z,45.99
2023-02-03T20:24:53.812Z,45.99
2023-02-03T20:25:53.856Z,45.98
2023-02-03T20:26:53.908Z,45.97
2023-02-03T20:27:53.976Z,45.93
2023-02-03T20:28:54.011Z,45.98
2023-02-03T20:29:54.056Z,45.98
2023-02-03T20:30:54.133Z,45.92
2023-02-03T20:31:54.194Z,45.95
2023-02-03T20:32:54.193Z,45.94
2023-02-03T20:33:54.239Z,45.93
2023-02-03T20:34:54.309Z,46.00
2023-02-03T20:35:54.339Z,45.94
2023-02-03T20:36:54.387Z,45.93
2023-02-03T20:37:54.443Z,45.90
2023-02-03T20:38:54.486Z,45.92
2023-02-03T20:39:54.542Z,45.90
2023-02-03T20:40:54.673Z,45.92
2023-02-03T20:41:54.679Z,45.90
2023-02-03T20:44:54.785Z,45.92
2023-02-03T21:44:58.131Z,45.57
2023-02-03T21:45:58.237Z,45.54
2023-02-03T21:46:58.254Z,45.56
2023-02-03T21:47:58.334Z,45.58
2023-02-03T21:48:58.374Z,45.50
2023-02-03T21:49:58.408Z,45.52
2023-02-03T21:50:58.470Z,45.46
2023-02-03T21:51:58.538Z,45.50
2023-02-03T21:52:58.580Z,45.51
2023-02-03T21:53:58.629Z,45.46
2023-02-03T21:54:58.776Z,45.48
2023-02-03T21:55:58.753Z,45.48
2023-02-03T21:56:58.804Z,45.45
2023-02-03T21:57:58.863Z,45.44
2023-02-03T21:58:59.012Z,45.47
2023-02-03T21:59:58.979Z,45.48
2023-02-03T22:00:59.070Z,45.47
2023-02-03T22:01:59.082Z,45.45
2023-02-03T22:02:59.186Z,45.49
2023-02-03T22:03:59.200Z,45.46
2023-02-03T22:04:59.241Z,45.48
2023-02-03T22:05:59.296Z,45.45
2023-02-03T22:06:59.340Z,45.46
2023-02-03T22:07:59.401Z,45.46
2023-02-03T22:08:59.469Z,45.43
2023-02-03T22:09:59.514Z,45.41
2023-02-03T22:10:59.573Z,45.41
2023-02-03T22:12:01.286Z,45.39
2023-02-03T22:12:59.681Z,45.41
2023-02-03T22:13:59.752Z,45.39
2023-02-03T22:14:59.806Z,45.35
2023-02-03T22:15:59.862Z,45.32
2023-02-03T22:17:00.038Z,45.43
2023-02-03T22:17:59.975Z,45.34
2023-02-03T22:19:00.032Z,45.38
2023-02-03T22:20:00.108Z,45.36
2023-02-03T22:21:00.136Z,45.31
2023-02-03T22:22:00.198Z,45.33
2023-02-03T22:23:00.233Z,45.35
2023-02-03T22:24:00.427Z,45.28
2023-02-03T22:25:00.341Z,45.34
2023-02-03T22:26:00.424Z,45.31
2023-02-03T22:27:00.458Z,45.31
2023-02-03T22:28:00.595Z,45.33
2023-02-03T22:29:00.585Z,45.34
2023-02-03T22:30:01.119Z,45.28
2023-02-03T22:31:00.773Z,45.29
2023-02-03T22:32:00.868Z,45.27
2023-02-03T22:33:00.798Z,45.29
2023-02-03T22:34:00.869Z,45.28
2023-02-03T22:35:00.922Z,45.28
2023-02-03T22:36:00.983Z,45.27
2023-02-03T22:37:01.032Z,45.28
2023-02-03T22:38:01.082Z,45.27
2023-02-03T22:39:01.138Z,45.24
2023-02-03T22:40:01.493Z,45.24
2023-02-03T22:41:01.267Z,45.23
2023-02-03T22:42:01.342Z,45.26
2023-02-03T22:43:01.401Z,45.27
2023-02-03T22:44:01.455Z,45.29
2023-02-03T22:45:01.539Z,45.24
2023-02-03T22:47:01.626Z,45.22
2023-02-03T22:48:01.681Z,45.24
2023-02-03T22:49:01.744Z,45.26
2023-02-03T22:50:01.832Z,45.21
2023-02-03T22:51:01.859Z,45.23
2023-02-03T22:52:01.905Z,45.16
2023-02-03T22:53:01.972Z,45.22
2023-02-03T22:54:02.013Z,45.16
2023-02-03T22:55:02.098Z,45.12
2023-02-03T22:56:02.147Z,45.20
2023-02-03T22:57:02.225Z,45.20
2023-02-03T22:58:02.252Z,45.19
2023-02-03T22:59:02.361Z,45.17
2023-02-03T23:00:02.390Z,45.14
2023-02-03T23:01:02.437Z,45.17
2023-02-03T23:02:02.497Z,45.14
2023-02-03T23:03:02.659Z,45.12
2023-02-03T23:04:02.612Z,45.10
2023-02-03T23:05:02.696Z,45.12
2023-02-03T23:06:02.734Z,45.13
2023-02-03T23:07:02.810Z,45.10
2023-02-03T23:08:02.850Z,45.11
2023-02-03T23:09:02.990Z,45.05
2023-02-03T23:11:03.027Z,45.04
2023-02-03T23:12:03.084Z,45.04
2023-02-03T23:13:03.147Z,45.11
2023-02-03T23:14:03.200Z,45.10
2023-02-03T23:15:03.268Z,45.03
2023-02-03T23:17:03.377Z,45.04
2023-02-03T23:18:03.447Z,45.07
